createdAt,value
2024-05-09T00:02:53.333Z,4.62
2024-05-09T00:06:56.479Z,5.03
2024-05-09T00:10:58.412Z,5.09
2024-05-09T00:15:00.316Z,5.04
2024-05-09T00:19:03.275Z,5.31
2024-05-09T00:23:07.480Z,5.52
2024-05-09T00:27:13.246Z,5.43
2024-05-09T00:31:15.466Z,5.42
2024-05-09T00:35:18.245Z,5.37
2024-05-09T00:39:20.253Z,5.44
2024-05-09T00:43:22.029Z,5.08
2024-05-09T00:47:24.276Z,4.86
2024-05-09T00:51:26.979Z,4.39
2024-05-09T00:55:29.642Z,4.50
2024-05-09T00:59:33.414Z,4.60
2024-05-09T01:03:35.714Z,4.13
2024-05-09T01:07:37.612Z,3.86
2024-05-09T01:11:40.830Z,4.07
2024-05-09T01:15:43.420Z,3.37
2024-05-09T01:19:46.341Z,3.72
2024-05-09T01:23:48.294Z,3.72
2024-05-09T01:27:50.006Z,3.79
2024-05-09T01:31:58.942Z,3.90
2024-05-09T01:36:00.861Z,3.08
2024-05-09T01:40:03.666Z,2.83
2024-05-09T01:44:05.712Z,3.23
2024-05-09T01:48:08.854Z,3.42
2024-05-09T01:52:10.750Z,3.65
2024-05-09T01:56:12.533Z,4.11
2024-05-09T02:00:22.127Z,3.80
2024-05-09T02:04:31.541Z,4.07
2024-05-09T02:08:33.976Z,4.26
2024-05-09T02:12:35.885Z,4.37
2024-05-09T02:16:38.682Z,4.17
2024-05-09T02:20:42.085Z,4.00
2024-05-09T02:24:44.517Z,3.91
2024-05-09T02:28:46.582Z,3.91
2024-05-09T02:32:49.993Z,2.97
2024-05-09T02:36:55.982Z,2.31
2024-05-09T02:40:57.786Z,2.48
2024-05-09T02:44:59.685Z,2.81
2024-05-09T02:49:01.674Z,2.89
2024-05-09T02:53:09.526Z,2.72
2024-05-09T02:57:11.822Z,2.97
2024-05-09T03:01:13.606Z,3.28
2024-05-09T03:05:16.022Z,3.31
2024-05-09T03:09:18.059Z,3.86
2024-05-09T03:13:20.050Z,3.82
2024-05-09T03:17:24.046Z,3.80
2024-05-09T03:21:26.147Z,3.76
2024-05-09T03:25:29.354Z,3.77
2024-05-09T03:29:31.227Z,4.01
2024-05-09T03:33:33.668Z,3.89
2024-05-09T03:37:35.884Z,3.96
2024-05-09T03:41:38.148Z,3.90
2024-05-09T03:45:39.944Z,3.90
2024-05-09T03:49:41.734Z,3.36
2024-05-09T03:53:43.810Z,2.37
2024-05-09T03:57:45.751Z,2.80
2024-05-09T04:01:47.857Z,3.54
2024-05-09T04:05:49.988Z,3.99
2024-05-09T04:09:53.245Z,4.27
2024-05-09T04:13:56.661Z,4.58
2024-05-09T04:17:58.657Z,5.52
2024-05-09T04:22:00.891Z,6.27
2024-05-09T04:26:04.440Z,6.30
2024-05-09T04:30:10.081Z,5.97
2024-05-09T04:34:17.994Z,5.25
2024-05-09T04:38:19.881Z,5.07
2024-05-09T04:42:22.269Z,5.41
2024-05-09T04:46:24.144Z,7.29
2024-05-09T04:50:35.357Z,10.62
2024-05-09T04:54:39.952Z,11.94
2024-05-09T04:58:41.714Z,12.87
2024-05-09T05:02:43.586Z,12.97
2024-05-09T05:06:45.552Z,13.40
2024-05-09T05:10:48.629Z,13.60
2024-05-09T05:14:53.105Z,13.59
2024-05-09T05:18:55.080Z,10.42
2024-05-09T05:22:56.911Z,9.90
2024-05-09T05:26:59.097Z,9.58
2024-05-09T05:31:01.009Z,9.29
2024-05-09T05:35:03.118Z,8.78
2024-05-09T05:39:04.911Z,8.73
2024-05-09T05:43:11.293Z,9.22
2024-05-09T05:47:13.151Z,9.53
2024-05-09T05:51:15.121Z,9.62
2024-05-09T05:55:17.148Z,8.48
2024-05-09T05:59:19.555Z,9.15
2024-05-09T06:03:21.454Z,9.88
2024-05-09T06:07:23.420Z,10.44
2024-05-09T06:11:26.101Z,10.78
2024-05-09T06:15:28.196Z,11.07
2024-05-09T06:19:30.212Z,10.97
2024-05-09T06:23:32.974Z,11.81
2024-05-09T06:27:35.068Z,12.23
2024-05-09T06:31:41.545Z,12.20
2024-05-09T06:35:44.400Z,11.79
2024-05-09T06:39:46.683Z,12.18
2024-05-09T06:43:48.499Z,12.71
2024-05-09T06:47:50.609Z,12.64
2024-05-09T06:51:52.383Z,12.95
2024-05-09T06:55:54.293Z,12.83
2024-05-09T06:59:59.694Z,13.05
2024-05-09T07:04:01.927Z,12.61
2024-05-09T07:08:04.967Z,12.80
2024-05-09T07:12:07.432Z,12.20
2024-05-09T07:16:09.318Z,13.29
2024-05-09T07:20:16.553Z,13.62
2024-05-09T07:24:26.675Z,13.57
2024-05-09T07:28:28.618Z,13.66
2024-05-09T07:32:30.504Z,14.21
2024-05-09T07:36:32.615Z,13.90
2024-05-09T07:40:36.905Z,14.16
2024-05-09T07:44:39.163Z,14.07
2024-05-09T07:53:34.604Z,14.54
2024-05-09T07:57:08.458Z,14.60
2024-05-09T08:01:10.638Z,14.21
2024-05-09T08:05:12.899Z,14.69
2024-05-09T08:09:20.910Z,14.84
2024-05-09T08:13:23.384Z,14.49
2024-05-09T08:17:25.345Z,14.20
2024-05-09T08:21:27.195Z,14.36
2024-05-09T08:25:29.076Z,14.54
2024-05-09T08:29:32.036Z,14.07
2024-05-09T08:33:34.088Z,14.19
2024-05-09T08:37:38.886Z,13.90
2024-05-09T08:41:42.717Z,13.66
2024-05-09T08:45:46.951Z,13.18
2024-05-09T08:49:50.732Z,12.91
2024-05-09T08:53:53.435Z,13.91
2024-05-09T08:57:56.135Z,13.36
2024-05-09T09:01:59.225Z,12.66
2024-05-09T09:06:06.165Z,14.01
2024-05-09T09:10:08.813Z,13.88
2024-05-09T09:14:10.743Z,13.74
2024-05-09T09:18:13.711Z,13.97
2024-05-09T09:22:16.061Z,14.44
2024-05-09T09:26:18.355Z,14.34
2024-05-09T09:30:34.046Z,13.84
2024-05-09T09:34:38.762Z,14.65
2024-05-09T09:38:41.309Z,14.46
2024-05-09T09:42:44.023Z,14.20
2024-05-09T09:46:47.123Z,14.10
2024-05-09T09:50:51.501Z,14.47
2024-05-09T09:54:54.454Z,14.02
2024-05-09T09:58:58.257Z,13.31
2024-05-09T10:03:01.318Z,13.67
2024-05-09T10:07:08.481Z,13.49
2024-05-09T10:11:10.691Z,13.43
2024-05-09T10:15:12.740Z,13.96
2024-05-09T10:19:27.659Z,13.51
2024-05-09T10:23:32.365Z,14.48
2024-05-09T10:27:34.423Z,14.19
2024-05-09T10:31:39.510Z,14.55
2024-05-09T10:35:51.444Z,14.74
2024-05-09T10:39:57.656Z,14.70
2024-05-09T10:43:59.769Z,13.90
2024-05-09T10:48:01.794Z,14.38
2024-05-09T10:52:04.265Z,14.49
2024-05-09T10:56:06.344Z,14.36
2024-05-09T11:00:15.621Z,14.51
2024-05-09T11:04:21.311Z,14.54
2024-05-09T11:08:24.296Z,14.53
2024-05-09T11:12:27.642Z,14.84
2024-05-09T11:16:30.175Z,15.22
2024-05-09T11:20:38.534Z,15.07
2024-05-09T11:24:41.019Z,14.83
2024-05-09T11:28:44.951Z,14.52
2024-05-09T11:32:47.172Z,14.77
2024-05-09T11:36:49.007Z,15.10
2024-05-09T11:40:53.059Z,14.94
2024-05-09T11:44:54.961Z,15.27
2024-05-09T11:48:57.287Z,15.30
2024-05-09T11:52:59.758Z,15.15
2024-05-09T11:57:01.522Z,14.83
2024-05-09T12:01:03.504Z,14.98
2024-05-09T12:05:06.058Z,15.04
2024-05-09T12:09:07.985Z,15.04
2024-05-09T12:13:10.775Z,15.36
2024-05-09T12:17:12.915Z,15.10
2024-05-09T12:21:17.340Z,15.05
2024-05-09T12:25:19.313Z,15.26
2024-05-09T12:29:21.231Z,15.09
2024-05-09T12:33:23.196Z,14.86
2024-05-09T12:37:25.595Z,15.28
2024-05-09T12:41:27.772Z,15.57
2024-05-09T12:45:29.593Z,15.82
2024-05-09T12:49:33.441Z,15.49
2024-05-09T12:53:36.226Z,15.70
2024-05-09T12:57:38.426Z,15.30
2024-05-09T13:01:40.384Z,15.63
2024-05-09T13:05:44.651Z,15.33
2024-05-09T13:09:47.471Z,15.57
2024-05-09T13:13:49.425Z,16.07
2024-05-09T13:17:51.846Z,15.64
2024-05-09T13:21:54.020Z,15.52
2024-05-09T13:25:55.895Z,15.80
2024-05-09T13:29:57.783Z,15.81
2024-05-09T13:34:00.153Z,15.91
2024-05-09T13:38:02.574Z,15.83
2024-05-09T13:42:04.643Z,15.17
2024-05-09T13:46:07.995Z,15.68
2024-05-09T13:50:28.224Z,15.33
2024-05-09T13:54:44.117Z,14.84
2024-05-09T13:58:58.422Z,15.65
2024-05-09T14:03:00.752Z,15.03
2024-05-09T14:07:22.425Z,15.24
2024-05-09T14:11:38.281Z,15.70
2024-05-09T14:15:40.602Z,15.72
2024-05-09T14:19:42.448Z,14.37
2024-05-09T14:23:44.100Z,14.71
2024-05-09T14:27:45.867Z,14.67
2024-05-09T14:31:47.647Z,14.76
2024-05-09T14:35:49.273Z,15.76
2024-05-09T14:39:50.948Z,15.01
2024-05-09T14:43:52.635Z,15.36
2024-05-09T14:47:54.461Z,14.69
2024-05-09T14:51:56.226Z,14.55
2024-05-09T14:55:57.949Z,14.03
2024-05-09T15:00:00.252Z,14.51
2024-05-09T15:04:02.288Z,13.96
2024-05-09T15:08:08.048Z,14.80
2024-05-09T15:12:09.727Z,13.37
2024-05-09T15:16:11.410Z,12.98
2024-05-09T15:20:17.311Z,13.22
2024-05-09T15:24:22.056Z,13.77
2024-05-09T15:28:23.820Z,13.65
2024-05-09T15:32:29.439Z,14.37
2024-05-09T15:36:31.182Z,14.01
2024-05-09T15:40:39.478Z,13.57
2024-05-09T15:44:42.463Z,14.10
2024-05-09T15:48:44.966Z,15.04
2024-05-09T15:52:46.632Z,14.77
2024-05-09T15:56:50.868Z,15.42
2024-05-09T16:00:52.889Z,15.04
2024-05-09T16:04:54.727Z,15.46
2024-05-09T16:08:56.543Z,15.99
2024-05-09T16:12:59.186Z,15.68
2024-05-09T16:17:01.071Z,15.07
2024-05-09T16:21:02.899Z,15.40
2024-05-09T16:25:05.068Z,15.10
2024-05-09T16:29:06.735Z,15.07
2024-05-09T16:33:08.927Z,15.85
2024-05-09T16:37:12.604Z,15.37
2024-05-09T16:41:15.454Z,14.80
2024-05-09T16:45:17.202Z,14.65
2024-05-09T16:49:19.078Z,14.47
2024-05-09T16:53:20.874Z,13.84
2024-05-09T16:57:22.632Z,13.40
2024-05-09T17:01:24.326Z,13.63
2024-05-09T17:05:28.445Z,13.39
2024-05-09T17:09:30.194Z,13.12
2024-05-09T17:13:32.485Z,13.35
2024-05-09T17:17:34.507Z,13.22
2024-05-09T17:21:38.314Z,13.07
2024-05-09T17:25:40.372Z,13.16
2024-05-09T17:29:42.156Z,12.89
2024-05-09T17:33:43.890Z,12.59
2024-05-09T17:37:45.619Z,12.58
2024-05-09T17:41:47.268Z,12.81
2024-05-09T17:45:48.982Z,12.74
2024-05-09T17:49:50.683Z,12.91
2024-05-09T17:53:52.369Z,12.96
2024-05-09T17:57:54.201Z,12.87
2024-05-09T18:01:56.141Z,12.84
2024-05-09T18:05:58.615Z,13.00
2024-05-09T18:10:00.430Z,13.14
2024-05-09T18:14:02.210Z,12.97
2024-05-09T18:18:05.040Z,12.94
2024-05-09T18:22:07.038Z,12.87
2024-05-09T18:26:09.021Z,12.79
2024-05-09T18:30:23.768Z,12.69
2024-05-09T18:34:29.905Z,12.75
2024-05-09T18:38:31.677Z,12.76
2024-05-09T18:42:33.302Z,12.70
2024-05-09T18:46:35.113Z,12.44
2024-05-09T18:50:39.799Z,12.61
2024-05-09T18:54:43.220Z,12.37
2024-05-09T18:58:45.010Z,12.50
2024-05-09T19:02:47.020Z,12.44
2024-05-09T19:06:49.105Z,12.33
2024-05-09T19:10:52.453Z,12.21
2024-05-09T19:14:54.185Z,12.08
2024-05-09T19:18:56.895Z,12.12
2024-05-09T19:22:58.883Z,12.00
2024-05-09T19:27:01.856Z,12.03
2024-05-09T19:31:03.659Z,11.97
2024-05-09T19:35:05.591Z,12.01
2024-05-09T19:39:07.225Z,11.98
2024-05-09T19:43:09.104Z,11.91
2024-05-09T19:47:12.026Z,12.02
2024-05-09T19:51:13.652Z,12.04
2024-05-09T19:55:15.623Z,11.72
2024-05-09T19:59:17.379Z,11.87
2024-05-09T20:03:19.241Z,11.81
2024-05-09T20:07:20.952Z,12.04
2024-05-09T20:11:24.336Z,11.66
2024-05-09T20:15:26.031Z,11.87
2024-05-09T20:19:27.816Z,11.96
2024-05-09T20:23:29.872Z,12.09
2024-05-09T20:27:31.537Z,12.01
2024-05-09T20:31:33.261Z,12.34
2024-05-09T20:35:35.238Z,12.09
2024-05-09T20:39:37.011Z,12.16
2024-05-09T20:43:38.675Z,12.05
2024-05-09T20:47:40.472Z,12.18
2024-05-09T20:51:42.227Z,11.85
2024-05-09T20:55:44.905Z,12.00
2024-05-09T20:59:46.967Z,11.76
2024-05-09T21:03:48.927Z,11.93
2024-05-09T21:07:50.656Z,11.97
2024-05-09T21:11:52.261Z,11.78
2024-05-09T21:15:54.006Z,12.06
2024-05-09T21:19:55.634Z,11.80
2024-05-09T21:23:57.407Z,11.87
2024-05-09T21:27:59.161Z,12.12
2024-05-09T21:32:00.823Z,11.71
2024-05-09T21:36:02.978Z,11.80
2024-05-09T21:40:11.248Z,11.71
2024-05-09T21:44:15.374Z,11.41
2024-05-09T21:48:17.108Z,11.59
2024-05-09T21:52:19.378Z,11.77
2024-05-09T21:56:21.102Z,11.36
2024-05-09T22:00:29.201Z,11.04
2024-05-09T22:04:37.371Z,11.23
2024-05-09T22:08:39.027Z,10.79
2024-05-09T22:12:40.691Z,10.78
2024-05-09T22:16:42.781Z,10.98
2024-05-09T22:20:46.251Z,10.77
2024-05-09T22:24:48.788Z,11.38
2024-05-09T22:28:50.507Z,11.26
2024-05-09T22:32:52.290Z,11.25
2024-05-09T22:36:53.973Z,11.12
2024-05-09T22:40:55.690Z,11.49
2024-05-09T22:44:57.355Z,11.26
2024-05-09T22:48:59.134Z,11.35
2024-05-09T22:53:01.071Z,11.29
2024-05-09T22:57:02.986Z,11.54
2024-05-09T23:01:04.969Z,11.64
2024-05-09T23:05:06.797Z,11.21
2024-05-09T23:09:09.963Z,11.55
2024-05-09T23:13:13.389Z,11.86
2024-05-09T23:17:15.059Z,11.86
2024-05-09T23:21:17.639Z,11.82
2024-05-09T23:25:19.553Z,11.87
2024-05-09T23:29:21.276Z,11.90
2024-05-09T23:33:23.121Z,11.75
2024-05-09T23:37:26.019Z,11.85
2024-05-09T23:41:27.635Z,11.87
2024-05-09T23:45:29.199Z,11.88
2024-05-09T23:49:31.049Z,11.78
2024-05-09T23:53:32.900Z,11.90
2024-05-09T23:57:34.646Z,11.97
